Time;durP1;ratioP1;P1;durP2;ratioP2;P2;SDS_P1;SDS_P2;PMS_P1;PMS_P2;Temp;Humidity;BMP_temperature;BMP_pressure;BME280_temperature;BME280_humidity;BME280_pressure;Samples;Min_cycle;Max_cycle;Signal;HPM_P1;HPM_P2
2022/01/08 00:01:02;;;;;;;0.87;0.87;;;5.70;99.90;;;;;;5050528;28;20226;-61
2022/01/08 00:03:29;;;;;;;0.90;0.90;;;5.70;99.90;;;;;;5050911;28;20204;-61
2022/01/08 00:05:57;;;;;;;0.80;0.80;;;5.70;99.90;;;;;;5052539;28;20306;-62
2022/01/08 00:08:24;;;;;;;0.73;0.73;;;5.70;99.90;;;;;;5052297;28;20207;-63
2022/01/08 00:10:53;;;;;;;0.83;0.83;;;5.70;99.90;;;;;;5053235;28;20204;-64
2022/01/08 00:13:21;;;;;;;0.87;0.87;;;5.80;99.90;;;;;;5052637;28;20210;-62
2022/01/08 00:15:48;;;;;;;0.70;0.70;;;5.80;99.90;;;;;;5052233;28;20240;-61
2022/01/08 00:18:15;;;;;;;0.80;0.80;;;5.80;99.90;;;;;;5052349;28;20712;-61
2022/01/08 00:20:42;;;;;;;0.80;0.80;;;5.80;99.90;;;;;;5052214;28;20214;-62
2022/01/08 00:23:10;;;;;;;1.00;1.00;;;5.80;99.90;;;;;;5051696;28;20210;-61
2022/01/08 00:25:37;;;;;;;0.80;0.80;;;5.80;99.90;;;;;;5051426;28;20708;-62
2022/01/08 00:28:04;;;;;;;0.77;0.77;;;5.80;99.90;;;;;;5054850;28;20251;-62
2022/01/08 00:30:32;;;;;;;0.73;0.73;;;5.90;99.90;;;;;;5053920;28;20252;-61
2022/01/08 00:32:59;;;;;;;0.90;0.90;;;5.90;99.90;;;;;;5054070;28;20207;-62
2022/01/08 00:35:27;;;;;;;0.90;0.90;;;5.90;99.90;;;;;;5052948;28;20232;-62
2022/01/08 00:37:53;;;;;;;0.90;0.90;;;5.90;99.90;;;;;;5051595;28;20298;-61
2022/01/08 00:40:20;;;;;;;0.80;0.80;;;5.90;99.90;;;;;;5051904;28;20287;-62
2022/01/08 00:42:47;;;;;;;0.90;0.90;;;5.90;99.90;;;;;;5051482;28;20755;-62
2022/01/08 00:45:14;;;;;;;0.93;0.93;;;5.90;99.90;;;;;;5049607;28;20319;-63
2022/01/08 00:47:42;;;;;;;0.83;0.83;;;5.80;99.90;;;;;;5049856;28;20485;-61
2022/01/08 00:50:12;;;;;;;0.80;0.80;;;5.80;99.90;;;;;;5050034;28;20573;-63
2022/01/08 00:52:39;;;;;;;0.80;0.80;;;5.80;99.90;;;;;;5047184;28;20207;-61
2022/01/08 00:55:07;;;;;;;0.90;0.90;;;5.80;99.90;;;;;;5051416;28;20298;-61
2022/01/08 00:57:34;;;;;;;0.87;0.87;;;5.80;99.90;;;;;;5050339;28;20379;-61
2022/01/08 01:00:01;;;;;;;0.87;0.87;;;5.80;99.90;;;;;;5048856;28;20204;-62
2022/01/08 01:02:28;;;;;;;0.70;0.70;;;5.70;99.90;;;;;;5046248;28;20212;-63
2022/01/08 01:04:56;;;;;;;1.13;1.00;;;5.70;99.90;;;;;;5049255;28;20279;-62
2022/01/08 01:07:23;;;;;;;0.80;0.80;;;5.80;99.90;;;;;;5048946;28;20214;-61
2022/01/08 01:09:50;;;;;;;0.80;0.80;;;5.70;99.90;;;;;;5049407;28;20732;-62
2022/01/08 01:12:17;;;;;;;0.80;0.80;;;5.70;99.90;;;;;;5050683;28;20726;-64
2022/01/08 01:14:44;;;;;;;1.00;0.90;;;5.70;99.90;;;;;;5049253;28;20242;-62
2022/01/08 01:17:11;;;;;;;0.93;0.90;;;5.70;99.90;;;;;;5049088;28;20200;-63
2022/01/08 01:19:38;;;;;;;0.90;0.90;;;5.70;99.90;;;;;;5049642;28;20722;-62
2022/01/08 01:22:06;;;;;;;0.70;0.70;;;5.70;99.90;;;;;;5049191;28;20666;-61
2022/01/08 01:24:35;;;;;;;1.03;1.00;;;5.70;99.90;;;;;;5049971;28;20200;-62
2022/01/08 01:27:41;;;;;;;0.80;0.80;;;5.70;99.90;;;;;;5055606;28;20232;-62
2022/01/08 01:30:12;;;;;;;0.77;0.77;;;5.70;99.90;;;;;;5052914;28;20196;-62
2022/01/08 01:41:19;;;;;;;0.70;0.70;;;5.60;99.90;;;;;;5054295;28;20678;-63
2022/01/08 01:49:16;;;;;;;0.77;0.77;;;5.50;99.90;;;;;;5070192;28;20210;-61
2022/01/08 01:51:43;;;;;;;0.53;0.53;;;5.50;99.90;;;;;;5057379;28;20224;-62
2022/01/08 01:54:11;;;;;;;0.55;0.55;;;5.50;99.90;;;;;;5053919;28;20642;-63
2022/01/08 01:56:39;;;;;;;0.60;0.60;;;5.50;99.90;;;;;;5053824;28;20255;-62
2022/01/08 01:59:06;;;;;;;0.60;0.60;;;5.50;99.90;;;;;;5053640;28;20218;-61
2022/01/08 02:01:33;;;;;;;0.40;0.40;;;5.40;99.90;;;;;;5053256;28;20311;-61
2022/01/08 02:04:00;;;;;;;0.30;0.30;;;5.50;99.90;;;;;;5054085;28;20255;-62
2022/01/08 02:06:27;;;;;;;0.60;0.60;;;5.40;99.90;;;;;;5054103;28;20426;-61
2022/01/08 02:08:53;;;;;;;0.40;0.40;;;5.30;99.90;;;;;;5054386;28;20241;-61
2022/01/08 02:11:22;;;;;;;0.40;0.40;;;5.30;99.90;;;;;;5056115;28;20239;-61
2022/01/08 02:13:49;;;;;;;0.50;0.50;;;5.30;99.90;;;;;;5055820;28;20452;-61
2022/01/08 02:16:17;;;;;;;0.27;0.27;;;5.30;99.90;;;;;;5053697;28;20263;-62
2022/01/08 02:18:45;;;;;;;0.50;0.50;;;5.30;99.90;;;;;;5053434;28;20204;-62
2022/01/08 02:21:15;;;;;;;0.53;0.53;;;5.30;99.90;;;;;;5053608;28;20204;-62
2022/01/08 02:23:42;;;;;;;0.30;0.30;;;5.30;99.90;;;;;;5053764;28;20242;-62
2022/01/08 02:26:10;;;;;;;0.37;0.37;;;5.30;99.90;;;;;;5053774;28;20231;-61
2022/01/08 02:28:38;;;;;;;0.40;0.40;;;5.30;99.90;;;;;;5053587;28;20200;-61
2022/01/08 02:31:06;;;;;;;0.40;0.40;;;5.30;99.90;;;;;;5053539;28;20530;-62
2022/01/08 02:33:33;;;;;;;0.53;0.53;;;5.30;99.90;;;;;;5053411;28;20659;-62
2022/01/08 02:36:07;;;;;;;0.30;0.30;;;5.30;99.90;;;;;;5053310;28;20227;-63
2022/01/08 02:38:36;;;;;;;0.37;0.37;;;5.30;99.90;;;;;;5053630;28;20277;-61
2022/01/08 02:41:05;;;;;;;0.43;0.43;;;5.30;99.90;;;;;;5053988;28;20204;-61
2022/01/08 02:43:38;;;;;;;0.37;0.37;;;5.30;99.90;;;;;;5053163;28;20230;-62
2022/01/08 02:46:05;;;;;;;0.30;0.30;;;5.30;99.90;;;;;;5053029;28;20287;-62
2022/01/08 02:48:32;;;;;;;0.50;0.50;;;5.30;99.90;;;;;;5052536;28;20300;-62
2022/01/08 02:50:59;;;;;;;0.40;0.40;;;5.30;99.90;;;;;;5052412;28;20299;-63
2022/01/08 02:53:26;;;;;;;0.40;0.40;;;5.30;99.90;;;;;;5053749;28;20291;-62
2022/01/08 02:55:54;;;;;;;0.57;0.57;;;5.40;99.90;;;;;;5035639;28;20224;-63
2022/01/08 02:58:21;;;;;;;0.50;0.50;;;5.40;99.90;;;;;;5032684;28;20300;-62
2022/01/08 03:00:48;;;;;;;0.33;0.33;;;5.40;99.90;;;;;;5033082;28;20944;-62
2022/01/08 03:03:15;;;;;;;0.40;0.40;;;5.40;99.90;;;;;;5032394;28;20259;-61
2022/01/08 03:05:42;;;;;;;0.40;0.40;;;5.40;99.90;;;;;;5032855;28;20312;-63
2022/01/08 03:08:09;;;;;;;0.50;0.50;;;5.40;99.90;;;;;;5032640;28;20295;-61
2022/01/08 03:10:35;;;;;;;0.50;0.50;;;5.40;99.90;;;;;;5032768;28;20296;-62
2022/01/08 03:13:05;;;;;;;0.43;0.43;;;5.40;99.90;;;;;;5032621;28;20564;-63
2022/01/08 03:15:36;;;;;;;0.47;0.47;;;5.40;99.90;;;;;;5032839;28;20332;-62
2022/01/08 03:18:03;;;;;;;0.30;0.30;;;5.50;99.90;;;;;;5032660;28;20679;-62
2022/01/08 03:20:30;;;;;;;0.40;0.40;;;5.50;99.90;;;;;;5032504;28;20763;-62
2022/01/08 03:23:02;;;;;;;0.30;0.30;;;5.40;99.90;;;;;;5032662;28;20231;-62
2022/01/08 03:25:30;;;;;;;0.50;0.50;;;5.50;99.90;;;;;;5032388;28;20260;-62
2022/01/08 03:27:57;;;;;;;0.50;0.50;;;5.50;99.90;;;;;;5032755;28;20299;-62
2022/01/08 03:30:28;;;;;;;0.43;0.43;;;5.50;99.90;;;;;;5031977;28;20298;-61
2022/01/08 03:32:55;;;;;;;0.30;0.30;;;5.50;99.90;;;;;;5032528;28;20262;-63
2022/01/08 03:35:21;;;;;;;0.57;0.57;;;5.50;99.90;;;;;;5032837;28;20363;-63
2022/01/08 03:37:49;;;;;;;0.40;0.40;;;5.50;99.90;;;;;;5032614;28;20332;-62
2022/01/08 03:40:16;;;;;;;0.40;0.40;;;5.50;99.90;;;;;;5032020;28;20768;-61
2022/01/08 03:42:43;;;;;;;0.50;0.50;;;5.50;99.90;;;;;;5032373;28;20319;-61
2022/01/08 03:45:10;;;;;;;0.50;0.50;;;5.50;99.90;;;;;;5032238;28;20712;-62
2022/01/08 03:50:34;;;;;;;0.40;0.40;;;5.50;99.90;;;;;;4989800;28;20202;-62
2022/01/08 03:53:01;;;;;;;0.40;0.40;;;5.50;99.90;;;;;;5021719;28;20288;-61
2022/01/08 03:55:28;;;;;;;0.50;0.50;;;5.50;99.90;;;;;;5032125;28;20228;-61
2022/01/08 03:57:55;;;;;;;0.40;0.40;;;5.60;99.90;;;;;;5032477;28;20677;-61
2022/01/08 04:00:22;;;;;;;0.53;0.53;;;5.60;99.90;;;;;;5031645;28;20281;-62
2022/01/08 04:02:51;;;;;;;0.50;0.50;;;5.50;99.90;;;;;;5039222;28;20327;-62
2022/01/08 04:05:18;;;;;;;0.40;0.40;;;5.50;99.90;;;;;;5034760;28;20279;-62
2022/01/08 04:07:45;;;;;;;0.40;0.40;;;5.50;99.90;;;;;;5035289;28;20731;-62
2022/01/08 04:10:12;;;;;;;0.53;0.53;;;5.60;99.90;;;;;;5032863;28;20210;-62
2022/01/08 04:12:43;;;;;;;0.60;0.60;;;5.50;99.90;;;;;;5032603;28;20240;-62
2022/01/08 04:15:31;;;;;;;0.37;0.37;;;5.50;99.90;;;;;;5037801;28;20287;-62
2022/01/08 04:17:58;;;;;;;0.60;0.60;;;5.40;99.90;;;;;;5040376;28;20262;-62
2022/01/08 04:20:26;;;;;;;0.50;0.50;;;5.40;99.90;;;;;;5038904;28;20726;-62
2022/01/08 04:22:53;;;;;;;1.17;1.13;;;5.30;99.90;;;;;;5036491;28;20319;-62
2022/01/08 04:25:22;;;;;;;0.50;0.50;;;5.20;99.90;;;;;;5033925;28;20232;-62
2022/01/08 04:27:49;;;;;;;0.70;0.70;;;5.20;99.90;;;;;;5040260;28;20313;-62
2022/01/08 04:30:17;;;;;;;0.40;0.40;;;5.20;99.90;;;;;;5041119;28;20299;-61
2022/01/08 04:32:44;;;;;;;0.50;0.50;;;5.20;99.90;;;;;;5042043;28;20303;-62
2022/01/08 04:35:12;;;;;;;0.53;0.53;;;5.20;99.90;;;;;;5038285;28;20319;-62
2022/01/08 04:37:39;;;;;;;0.60;0.60;;;5.20;99.90;;;;;;5032837;28;20216;-62
2022/01/08 04:40:07;;;;;;;0.63;0.63;;;5.20;99.90;;;;;;5032571;28;20295;-62
2022/01/08 04:42:34;;;;;;;0.57;0.57;;;5.20;99.90;;;;;;5031906;28;20599;-62
2022/01/08 04:45:01;;;;;;;0.30;0.30;;;5.20;99.90;;;;;;5033149;28;20225;-63
2022/01/08 04:47:29;;;;;;;0.40;0.40;;;5.10;99.90;;;;;;5033390;28;20245;-61
2022/01/08 04:49:56;;;;;;;0.40;0.40;;;5.10;99.90;;;;;;5031998;28;20212;-61
2022/01/08 04:52:24;;;;;;;0.40;0.40;;;5.00;99.90;;;;;;5032813;28;20232;-62
2022/01/08 04:54:51;;;;;;;0.23;0.23;;;4.90;99.90;;;;;;5033125;28;20205;-62
2022/01/08 04:57:18;;;;;;;0.30;0.30;;;4.90;99.90;;;;;;5032924;28;20375;-62
2022/01/08 04:59:45;;;;;;;0.50;0.50;;;4.80;99.90;;;;;;5032716;28;20295;-62
2022/01/08 05:02:12;;;;;;;0.20;0.20;;;4.70;99.90;;;;;;5031967;28;20260;-62
2022/01/08 05:04:39;;;;;;;0.50;0.50;;;4.70;99.90;;;;;;5032713;28;20239;-62
2022/01/08 05:07:06;;;;;;;0.47;0.47;;;4.70;99.90;;;;;;5032461;28;20228;-62
2022/01/08 05:09:34;;;;;;;0.30;0.30;;;4.60;99.90;;;;;;5033407;28;20580;-63
2022/01/08 05:12:01;;;;;;;0.50;0.50;;;4.60;99.90;;;;;;5031991;28;20232;-62
2022/01/08 05:14:28;;;;;;;0.40;0.40;;;4.60;99.90;;;;;;5035838;28;20211;-61
2022/01/08 05:16:59;;;;;;;0.50;0.50;;;4.50;99.90;;;;;;5036868;28;20239;-62
2022/01/08 05:19:37;;;;;;;0.40;0.40;;;4.50;99.90;;;;;;5037632;28;20200;-62
2022/01/08 05:22:06;;;;;;;0.40;0.40;;;4.50;99.90;;;;;;5036865;28;20204;-62
2022/01/08 05:24:34;;;;;;;0.40;0.40;;;4.50;99.90;;;;;;5036891;28;20224;-61
2022/01/08 05:27:03;;;;;;;0.30;0.30;;;4.40;99.90;;;;;;5036997;28;20323;-62
2022/01/08 05:29:30;;;;;;;0.40;0.40;;;4.40;99.90;;;;;;5036514;28;20212;-61
2022/01/08 05:31:57;;;;;;;0.40;0.40;;;4.40;99.90;;;;;;5036546;28;20215;-62
2022/01/08 05:34:24;;;;;;;0.30;0.30;;;4.40;99.90;;;;;;5037413;28;20227;-62
2022/01/08 05:36:51;;;;;;;0.40;0.40;;;4.40;99.90;;;;;;5036801;28;20283;-61
2022/01/08 05:39:17;;;;;;;0.43;0.43;;;4.40;99.90;;;;;;5037317;28;20296;-62
2022/01/08 05:41:46;;;;;;;0.40;0.40;;;4.40;99.90;;;;;;5036902;28;20638;-62
2022/01/08 05:44:12;;;;;;;0.30;0.30;;;4.40;99.90;;;;;;5036625;28;20230;-63
2022/01/08 05:46:44;;;;;;;0.30;0.30;;;4.40;99.90;;;;;;5036744;28;20238;-62
2022/01/08 05:49:12;;;;;;;0.30;0.30;;;4.40;99.90;;;;;;5036813;28;20217;-62
2022/01/08 05:51:39;;;;;;;0.40;0.40;;;4.40;99.90;;;;;;5036323;28;20209;-62
2022/01/08 05:54:06;;;;;;;0.67;0.40;;;4.40;99.90;;;;;;5035559;28;20235;-63
2022/01/08 05:56:32;;;;;;;0.50;0.50;;;4.40;99.90;;;;;;5035522;28;20307;-61
2022/01/08 05:59:01;;;;;;;0.40;0.40;;;4.50;99.90;;;;;;5034846;28;20299;-62
2022/01/08 06:01:28;;;;;;;0.57;0.57;;;4.40;99.90;;;;;;5034820;28;20215;-62
2022/01/08 06:03:55;;;;;;;0.60;0.60;;;4.40;99.90;;;;;;5034682;28;20602;-62
2022/01/08 06:06:21;;;;;;;0.50;0.50;;;4.30;99.90;;;;;;5034597;28;20311;-61
2022/01/08 06:08:48;;;;;;;0.70;0.70;;;4.30;99.90;;;;;;5035080;28;20282;-62
2022/01/08 06:11:15;;;;;;;0.60;0.60;;;4.30;99.90;;;;;;5037231;28;20211;-61
2022/01/08 06:13:42;;;;;;;0.50;0.50;;;4.30;99.90;;;;;;5037579;28;20207;-62
2022/01/08 06:16:10;;;;;;;0.80;0.80;;;4.30;99.90;;;;;;5037860;28;20319;-61
2022/01/08 06:18:38;;;;;;;0.60;0.60;;;4.40;99.90;;;;;;5036680;28;20748;-61
2022/01/08 06:21:05;;;;;;;0.60;0.60;;;4.30;99.90;;;;;;5037418;28;20212;-61
2022/01/08 06:23:32;;;;;;;0.73;0.73;;;4.30;99.90;;;;;;5035974;28;20266;-62
2022/01/08 06:26:00;;;;;;;0.70;0.70;;;4.30;99.90;;;;;;5039628;28;20256;-61
2022/01/08 06:28:27;;;;;;;0.70;0.70;;;4.30;99.90;;;;;;5038291;28;20201;-62
2022/01/08 06:30:54;;;;;;;0.60;0.60;;;4.30;99.90;;;;;;5034804;28;20232;-62
2022/01/08 06:33:22;;;;;;;0.70;0.70;;;4.20;99.90;;;;;;5034824;28;20240;-62
2022/01/08 06:35:51;;;;;;;0.90;0.90;;;4.30;99.90;;;;;;5035418;28;20225;-62
2022/01/08 06:38:18;;;;;;;0.60;0.60;;;4.20;99.90;;;;;;5036792;28;20200;-62
2022/01/08 06:40:45;;;;;;;0.80;0.80;;;4.20;99.90;;;;;;5038622;28;20232;-62
2022/01/08 06:43:12;;;;;;;0.90;0.90;;;4.30;99.90;;;;;;5038988;28;20292;-61
2022/01/08 06:45:39;;;;;;;0.80;0.80;;;4.30;99.90;;;;;;5037949;28;20256;-62
2022/01/08 06:48:06;;;;;;;0.70;0.70;;;4.30;99.90;;;;;;5038798;28;20287;-62
2022/01/08 06:50:34;;;;;;;0.93;0.93;;;4.30;99.90;;;;;;5041562;28;20268;-62
2022/01/08 06:53:01;;;;;;;0.80;0.80;;;4.00;99.90;;;;;;5047171;28;20236;-63
2022/01/08 06:55:28;;;;;;;1.07;1.00;;;4.20;99.90;;;;;;5042295;28;20370;-62
2022/01/08 06:57:56;;;;;;;0.83;0.83;;;4.20;99.90;;;;;;5035517;28;20244;-62
2022/01/08 07:00:23;;;;;;;0.93;0.93;;;4.20;99.90;;;;;;5033627;28;20635;-62
2022/01/08 07:02:50;;;;;;;1.20;1.10;;;4.20;99.90;;;;;;5033143;28;20226;-61
2022/01/08 07:05:17;;;;;;;1.00;1.00;;;4.20;99.90;;;;;;5033562;28;20331;-63
2022/01/08 07:07:45;;;;;;;0.70;0.70;;;4.30;99.90;;;;;;5043334;28;20197;-62
2022/01/08 07:10:12;;;;;;;0.90;0.90;;;4.30;99.90;;;;;;5049871;28;20298;-61
2022/01/08 07:12:39;;;;;;;0.87;0.87;;;4.20;99.90;;;;;;5052320;28;20296;-64
2022/01/08 07:15:07;;;;;;;0.93;0.93;;;4.40;99.90;;;;;;5063891;28;20263;-61
2022/01/08 07:17:34;;;;;;;1.10;1.00;;;4.30;99.90;;;;;;5055466;28;20295;-63
2022/01/08 07:20:01;;;;;;;0.70;0.70;;;4.30;99.90;;;;;;5068246;28;20203;-62
2022/01/08 07:22:29;;;;;;;1.37;1.00;;;4.30;99.90;;;;;;5058138;28;20206;-62
2022/01/08 07:24:57;;;;;;;1.10;1.10;;;4.20;99.90;;;;;;5039183;28;20684;-61
2022/01/08 07:27:24;;;;;;;1.00;1.00;;;4.20;99.90;;;;;;5052614;28;20303;-62
2022/01/08 07:29:51;;;;;;;1.00;1.00;;;4.10;99.90;;;;;;5052827;28;20207;-61
2022/01/08 07:32:18;;;;;;;1.00;1.00;;;4.00;99.90;;;;;;5052866;28;20287;-62
2022/01/08 07:34:45;;;;;;;0.97;0.97;;;4.00;99.90;;;;;;5052311;28;20196;-60
2022/01/08 07:37:12;;;;;;;0.90;0.90;;;4.00;99.90;;;;;;5052110;28;20954;-63
2022/01/08 07:39:38;;;;;;;0.90;0.90;;;4.00;99.90;;;;;;5052306;28;20770;-61
2022/01/08 07:42:07;;;;;;;0.90;0.90;;;4.10;99.90;;;;;;5052312;28;20700;-62
2022/01/08 07:44:34;;;;;;;1.03;1.03;;;4.10;99.90;;;;;;5052319;28;20311;-61
2022/01/08 07:47:01;;;;;;;1.10;1.00;;;4.10;99.90;;;;;;5051407;28;20689;-62
2022/01/08 07:49:28;;;;;;;0.80;0.80;;;4.10;99.90;;;;;;5051954;28;20584;-61
2022/01/08 07:51:55;;;;;;;0.90;0.90;;;4.20;99.90;;;;;;5044052;28;20795;-60
2022/01/08 07:54:22;;;;;;;1.03;1.03;;;4.20;99.90;;;;;;5040587;28;20207;-63
2022/01/08 07:56:49;;;;;;;1.00;1.00;;;4.20;99.90;;;;;;5051705;28;20868;-62
2022/01/08 07:59:17;;;;;;;0.73;0.73;;;4.30;99.90;;;;;;5051665;28;20660;-62
2022/01/08 08:01:44;;;;;;;0.77;0.77;;;4.30;99.90;;;;;;5051465;28;20325;-61
2022/01/08 08:04:11;;;;;;;0.80;0.80;;;4.30;99.90;;;;;;5051570;28;20230;-62
2022/01/08 08:06:43;;;;;;;0.70;0.70;;;4.40;99.90;;;;;;5051762;28;20306;-61
2022/01/08 08:09:10;;;;;;;0.93;0.93;;;4.40;99.90;;;;;;5052438;28;20299;-62
2022/01/08 08:11:37;;;;;;;0.90;0.90;;;4.40;99.90;;;;;;5052376;28;20207;-62
2022/01/08 08:14:05;;;;;;;0.85;0.85;;;4.50;99.90;;;;;;5051527;28;20208;-61
2022/01/08 08:16:33;;;;;;;0.90;0.90;;;4.50;99.90;;;;;;5048259;28;20242;-61
2022/01/08 08:19:00;;;;;;;0.90;0.90;;;4.50;99.90;;;;;;5052058;28;20292;-60
2022/01/08 08:21:27;;;;;;;0.90;0.90;;;4.60;99.90;;;;;;5054581;28;20235;-61
2022/01/08 08:23:54;;;;;;;0.97;0.97;;;4.60;99.90;;;;;;5050491;28;20299;-61
2022/01/08 08:26:22;;;;;;;1.10;1.10;;;4.70;99.90;;;;;;5058613;28;20311;-61
2022/01/08 08:28:49;;;;;;;0.90;0.90;;;4.70;99.90;;;;;;5050564;28;20299;-60
2022/01/08 08:31:15;;;;;;;0.80;0.80;;;4.70;99.90;;;;;;5050553;28;20273;-62
2022/01/08 08:33:44;;;;;;;0.90;0.90;;;4.70;99.90;;;;;;5049806;28;20224;-61
2022/01/08 08:36:11;;;;;;;0.80;0.80;;;4.80;99.90;;;;;;5050442;28;20315;-61
2022/01/08 08:38:38;;;;;;;1.13;1.13;;;4.90;99.90;;;;;;5050968;28;20422;-61
2022/01/08 08:41:05;;;;;;;1.35;1.30;;;4.80;99.90;;;;;;5053868;28;20212;-62
2022/01/08 08:43:32;;;;;;;3.47;3.17;;;4.90;99.90;;;;;;5056610;28;20281;-62
2022/01/08 08:45:58;;;;;;;1.90;1.80;;;4.80;99.90;;;;;;5051297;28;20238;-61
2022/01/08 08:48:25;;;;;;;1.37;1.30;;;4.90;99.90;;;;;;5051336;28;20203;-62
2022/01/08 08:50:54;;;;;;;1.20;1.20;;;5.00;99.90;;;;;;5051282;28;20238;-62
2022/01/08 08:53:21;;;;;;;1.00;1.00;;;5.00;99.90;;;;;;5050667;28;20195;-62
2022/01/08 08:55:48;;;;;;;0.80;0.80;;;5.00;99.90;;;;;;5050916;28;20327;-61
2022/01/08 08:58:15;;;;;;;0.67;0.67;;;5.10;99.90;;;;;;5051435;28;20210;-63
2022/01/08 09:00:42;;;;;;;0.80;0.80;;;5.20;99.90;;;;;;5051081;28;20203;-62
2022/01/08 09:03:09;;;;;;;0.90;0.90;;;5.20;99.90;;;;;;5051196;28;20207;-62
2022/01/08 09:05:36;;;;;;;0.90;0.90;;;5.20;99.90;;;;;;5051652;28;20314;-62
2022/01/08 09:08:05;;;;;;;0.73;0.73;;;5.20;99.90;;;;;;5053531;28;20267;-61
2022/01/08 09:10:33;;;;;;;0.97;0.97;;;5.20;99.90;;;;;;5058908;28;20246;-62
2022/01/08 09:13:00;;;;;;;1.30;1.10;;;5.20;99.90;;;;;;5052970;28;20215;-62
2022/01/08 09:15:27;;;;;;;0.90;0.90;;;5.20;99.90;;;;;;5051946;28;20312;-60
2022/01/08 09:17:59;;;;;;;1.20;1.10;;;5.20;99.90;;;;;;5052561;28;20188;-61
2022/01/08 09:20:27;;;;;;;0.80;0.80;;;5.30;99.90;;;;;;5051883;28;20318;-62
2022/01/08 09:22:54;;;;;;;0.95;0.95;;;5.30;99.90;;;;;;5051269;28;20254;-63
2022/01/08 09:25:22;;;;;;;0.97;0.97;;;5.40;99.90;;;;;;5050780;28;20242;-62
2022/01/08 09:27:49;;;;;;;0.80;0.80;;;5.40;99.90;;;;;;5051160;28;20243;-62
2022/01/08 09:30:16;;;;;;;0.80;0.80;;;5.50;99.90;;;;;;5050673;28;20675;-63
2022/01/08 09:32:44;;;;;;;0.80;0.80;;;5.50;99.90;;;;;;5051052;28;20258;-63
2022/01/08 09:35:12;;;;;;;0.80;0.80;;;5.50;99.90;;;;;;5051022;28;20223;-61
2022/01/08 09:37:39;;;;;;;1.00;1.00;;;5.50;99.90;;;;;;5051772;28;20306;-62
2022/01/08 09:40:09;;;;;;;0.90;0.90;;;5.40;99.90;;;;;;5052216;28;20262;-61
2022/01/08 09:42:37;;;;;;;0.80;0.80;;;5.40;99.90;;;;;;5038974;28;20228;-61
2022/01/08 09:45:05;;;;;;;0.80;0.80;;;5.40;99.90;;;;;;5035712;28;20594;-62
2022/01/08 09:47:32;;;;;;;0.70;0.70;;;5.30;99.90;;;;;;5032161;28;20291;-61
2022/01/08 09:49:59;;;;;;;0.77;0.77;;;5.30;99.90;;;;;;5034943;28;20240;-62
2022/01/08 09:52:26;;;;;;;1.10;1.10;;;5.30;99.90;;;;;;5034610;28;20239;-62
2022/01/08 09:54:53;;;;;;;1.30;1.20;;;5.30;99.90;;;;;;5033391;28;20294;-62
2022/01/08 09:57:20;;;;;;;1.02;0.90;;;5.30;99.90;;;;;;5030937;28;20248;-62
2022/01/08 09:59:48;;;;;;;0.87;0.87;;;5.20;99.90;;;;;;5033410;28;20209;-61
2022/01/08 10:02:21;;;;;;;0.90;0.90;;;5.20;99.90;;;;;;5035098;28;20205;-62
2022/01/08 10:04:48;;;;;;;0.90;0.90;;;5.10;99.90;;;;;;5035041;28;20229;-62
2022/01/08 10:07:19;;;;;;;1.20;1.10;;;5.10;99.90;;;;;;5034316;28;20807;-63
2022/01/08 10:10:12;;;;;;;1.10;1.10;;;5.20;99.90;;;;;;5034237;28;20637;-62
2022/01/08 10:12:43;;;;;;;1.10;1.10;;;5.20;99.90;;;;;;5034730;28;20205;-60
2022/01/08 10:17:57;;;;;;;0.90;0.90;;;5.20;99.90;;;;;;5035969;28;20204;-62
2022/01/08 10:20:33;;;;;;;0.90;0.90;;;5.50;99.90;;;;;;5034311;28;20215;-62
2022/01/08 10:23:10;;;;;;;1.27;1.17;;;5.40;99.90;;;;;;5034146;28;20231;-62
2022/01/08 10:25:37;;;;;;;0.80;0.80;;;5.40;99.90;;;;;;5033372;28;20764;-63
2022/01/08 10:28:05;;;;;;;0.97;0.97;;;5.40;99.90;;;;;;5033692;28;20204;-61
2022/01/08 10:30:33;;;;;;;0.90;0.90;;;5.40;99.90;;;;;;5033857;28;20216;-63
2022/01/08 10:33:02;;;;;;;1.00;1.00;;;5.40;99.90;;;;;;5033262;28;20240;-62
2022/01/08 10:35:48;;;;;;;0.80;0.80;;;5.40;99.90;;;;;;5034802;28;20674;-61
2022/01/08 10:38:16;;;;;;;0.80;0.80;;;5.40;99.90;;;;;;5036855;28;20291;-64
2022/01/08 10:40:43;;;;;;;0.90;0.90;;;5.40;99.90;;;;;;5034076;28;20209;-62
2022/01/08 10:43:27;;;;;;;0.80;0.80;;;5.50;99.90;;;;;;5033310;28;20294;-63
2022/01/08 10:46:09;;;;;;;0.80;0.80;;;5.50;99.90;;;;;;5033460;28;20278;-61
2022/01/08 10:48:36;;;;;;;0.82;0.82;;;5.60;99.90;;;;;;5036346;28;20193;-63
2022/01/08 10:51:15;;;;;;;0.70;0.70;;;5.60;99.90;;;;;;5036792;28;20208;-62
2022/01/08 10:54:02;;;;;;;0.77;0.77;;;5.70;99.90;;;;;;5032563;28;20719;-62
2022/01/08 10:56:31;;;;;;;0.70;0.70;;;5.70;99.90;;;;;;5033181;28;20256;-63
2022/01/08 10:59:05;;;;;;;0.70;0.70;;;5.70;99.90;;;;;;5033281;28;20295;-62
2022/01/08 11:01:51;;;;;;;0.63;0.63;;;5.70;99.90;;;;;;5033451;28;20192;-61
2022/01/08 11:04:20;;;;;;;0.60;0.60;;;5.80;99.90;;;;;;5035159;28;20231;-61
2022/01/08 11:06:56;;;;;;;0.80;0.80;;;5.90;99.90;;;;;;5034273;28;20311;-63
2022/01/08 11:09:24;;;;;;;0.60;0.60;;;5.90;99.90;;;;;;5035201;28;20199;-62
2022/01/08 11:11:51;;;;;;;0.55;0.55;;;5.90;99.90;;;;;;5040971;28;20277;-62
2022/01/08 11:14:45;;;;;;;0.50;0.50;;;5.90;99.90;;;;;;5042029;28;20676;-63
2022/01/08 11:17:15;;;;;;;0.60;0.60;;;6.00;99.90;;;;;;5037598;28;20219;-61
2022/01/08 11:19:45;;;;;;;0.60;0.60;;;6.00;99.90;;;;;;5044793;28;20210;-63
2022/01/08 11:22:14;;;;;;;0.80;0.80;;;6.10;99.90;;;;;;5051254;28;20303;-62
2022/01/08 11:24:50;;;;;;;0.52;0.52;;;6.10;99.90;;;;;;5050720;28;20224;-62
2022/01/08 11:27:22;;;;;;;0.80;0.80;;;6.10;99.90;;;;;;5052288;28;20292;-63
2022/01/08 11:29:56;;;;;;;0.75;0.75;;;6.20;99.90;;;;;;5054224;28;20806;-62
2022/01/08 11:32:26;;;;;;;0.60;0.60;;;6.20;99.90;;;;;;5050359;28;20811;-63
2022/01/08 11:34:54;;;;;;;0.80;0.80;;;6.20;99.90;;;;;;5052218;28;20210;-64
2022/01/08 11:37:23;;;;;;;0.70;0.70;;;6.20;99.90;;;;;;5031351;28;20242;-62
2022/01/08 11:39:51;;;;;;;0.80;0.80;;;6.20;99.90;;;;;;5032769;28;20267;-63
2022/01/08 11:42:21;;;;;;;0.57;0.57;;;6.20;99.90;;;;;;5038807;28;20204;-61
2022/01/08 11:44:50;;;;;;;0.80;0.80;;;6.20;99.90;;;;;;5051166;28;20219;-63
2022/01/08 11:47:19;;;;;;;0.73;0.73;;;6.20;99.90;;;;;;5050681;28;20200;-63
2022/01/08 11:49:48;;;;;;;0.70;0.70;;;6.30;99.90;;;;;;5050565;28;20353;-63
2022/01/08 11:52:17;;;;;;;0.80;0.80;;;6.20;99.90;;;;;;5050940;28;20231;-62
2022/01/08 11:54:45;;;;;;;0.80;0.80;;;6.10;99.90;;;;;;5050423;28;20200;-61
2022/01/08 11:57:19;;;;;;;0.77;0.77;;;6.20;99.90;;;;;;5050485;28;20287;-61
2022/01/08 11:59:47;;;;;;;0.63;0.63;;;6.20;99.90;;;;;;5050813;28;20708;-62
2022/01/08 12:02:15;;;;;;;0.73;0.73;;;6.30;99.90;;;;;;5049834;28;20294;-62
2022/01/08 12:04:47;;;;;;;0.87;0.87;;;6.30;99.90;;;;;;5050357;28;20230;-62
2022/01/08 12:07:34;;;;;;;0.80;0.80;;;6.30;99.90;;;;;;5050398;28;20204;-62
2022/01/08 12:10:09;;;;;;;0.80;0.80;;;6.30;99.90;;;;;;5049696;28;20210;-61
2022/01/08 12:12:47;;;;;;;0.63;0.63;;;6.30;99.90;;;;;;5048056;28;20203;-63
2022/01/08 12:15:16;;;;;;;0.60;0.60;;;6.30;99.90;;;;;;5051149;28;20234;-64
2022/01/08 12:17:57;;;;;;;0.93;0.93;;;6.40;99.90;;;;;;5053486;28;20676;-61
2022/01/08 12:20:42;;;;;;;0.70;0.70;;;6.40;99.90;;;;;;5048710;28;20242;-63
2022/01/08 12:26:09;;;;;;;0.90;0.90;;;6.50;99.90;;;;;;5105857;28;20558;-62
2022/01/08 12:28:53;;;;;;;0.88;0.88;;;6.50;99.90;;;;;;5088716;28;20220;-63
2022/01/08 12:31:38;;;;;;;0.90;0.90;;;6.60;99.90;;;;;;5074261;28;20665;-62
2022/01/08 12:34:48;;;;;;;0.90;0.90;;;6.60;99.90;;;;;;5051375;28;20285;-62
2022/01/08 12:37:17;;;;;;;0.87;0.87;;;6.70;99.90;;;;;;5059581;28;20203;-63
2022/01/08 12:39:55;;;;;;;0.80;0.80;;;6.70;99.90;;;;;;5056945;28;20750;-63
2022/01/08 12:42:43;;;;;;;0.88;0.88;;;6.70;99.90;;;;;;5064801;28;20194;-63
2022/01/08 12:45:15;;;;;;;0.70;0.70;;;6.60;99.90;;;;;;5065115;28;20310;-62
2022/01/08 12:47:45;;;;;;;0.73;0.73;;;6.60;99.90;;;;;;5061669;28;20785;-61
2022/01/08 12:50:21;;;;;;;0.70;0.70;;;6.60;99.90;;;;;;5068803;28;20727;-62
2022/01/08 12:53:21;;;;;;;0.70;0.70;;;6.60;99.90;;;;;;5062843;28;20203;-62
2022/01/08 12:56:16;;;;;;;0.60;0.60;;;6.60;99.90;;;;;;5072393;28;20207;-61
2022/01/08 12:58:55;;;;;;;0.70;0.70;;;6.60;99.90;;;;;;5071403;28;20208;-62
2022/01/08 13:01:25;;;;;;;0.77;0.77;;;6.50;99.90;;;;;;5076620;28;20203;-62
2022/01/08 13:03:56;;;;;;;0.60;0.60;;;6.60;99.90;;;;;;5078099;28;20238;-62
2022/01/08 13:06:30;;;;;;;0.60;0.60;;;6.60;99.90;;;;;;5070426;28;20760;-61
2022/01/08 13:08:58;;;;;;;0.50;0.50;;;6.60;99.90;;;;;;5073467;28;20612;-63
2022/01/08 13:11:28;;;;;;;0.60;0.60;;;6.60;99.90;;;;;;5062667;28;20451;-61
2022/01/08 13:14:00;;;;;;;0.70;0.70;;;6.60;99.90;;;;;;5064844;28;20223;-61
2022/01/08 13:16:30;;;;;;;0.70;0.70;;;6.80;99.90;;;;;;5063765;28;20242;-61
2022/01/08 13:18:58;;;;;;;0.60;0.60;;;6.60;99.90;;;;;;5060110;28;20304;-60
2022/01/08 13:21:29;;;;;;;0.70;0.70;;;6.70;99.90;;;;;;5056992;28;20287;-61
2022/01/08 13:23:58;;;;;;;0.43;0.43;;;6.60;99.90;;;;;;5062152;28;20302;-62
2022/01/08 13:26:35;;;;;;;0.60;0.60;;;6.60;99.90;;;;;;5063916;28;20726;-61
2022/01/08 13:29:18;;;;;;;0.60;0.60;;;6.60;99.90;;;;;;5064570;28;20261;-64
2022/01/08 13:31:46;;;;;;;0.60;0.60;;;6.60;99.90;;;;;;5056499;28;20199;-61